Time;durP1;ratioP1;P1;durP2;ratioP2;P2;SDS_P1;SDS_P2;PMS_P1;PMS_P2;Temp;Humidity;BMP_temperature;BMP_pressure;BME280_temperature;BME280_humidity;BME280_pressure;Samples;Min_cycle;Max_cycle;Signal;HPM_P1;HPM_P2
2022/02/05 06:24:20;;;;;;;33.42;17.50;;;;;;;;;;5363131;23;20041;-62
2022/02/05 06:26:46;;;;;;;32.97;18.08;;;;;;;;;;5032570;28;20033;-64
2022/02/05 06:29:12;;;;;;;32.42;17.33;;;;;;;;;;5032217;28;20107;-63
2022/02/05 06:31:38;;;;;;;36.58;17.17;;;;;;;;;;5014481;28;20025;-62
2022/02/05 06:34:04;;;;;;;30.45;16.17;;;;;;;;;;5032207;28;20088;-62
2022/02/05 06:36:30;;;;;;;27.30;16.13;;;;;;;;;;5032246;28;20563;-62
2022/02/05 06:38:56;;;;;;;32.38;16.05;;;;;;;;;;5032063;28;20029;-63
2022/02/05 06:41:22;;;;;;;29.55;15.63;;;;;;;;;;5032219;28;20078;-62
2022/02/05 06:43:48;;;;;;;27.73;15.38;;;;;;;;;;5032042;28;20037;-62
2022/02/05 06:46:14;;;;;;;29.10;16.45;;;;;;;;;;5031526;28;20083;-63
2022/02/05 06:48:40;;;;;;;30.13;17.35;;;;;;;;;;5031494;28;20111;-62
2022/02/05 06:51:07;;;;;;;32.53;17.10;;;;;;;;;;5031892;28;20112;-62
2022/02/05 06:53:33;;;;;;;29.60;15.90;;;;;;;;;;5031624;28;20041;-62
2022/02/05 06:55:59;;;;;;;32.53;17.38;;;;;;;;;;5031962;28;20213;-63
2022/02/05 06:58:25;;;;;;;30.58;17.80;;;;;;;;;;5031760;28;20029;-62
2022/02/05 07:00:51;;;;;;;32.63;18.40;;;;;;;;;;5032084;28;20021;-62
2022/02/05 07:03:20;;;;;;;37.08;20.88;;;;;;;;;;5018270;28;20033;-62
2022/02/05 07:05:47;;;;;;;42.53;21.52;;;;;;;;;;5031491;28;20060;-63
2022/02/05 07:08:13;;;;;;;39.10;21.13;;;;;;;;;;5031586;28;20117;-61
2022/02/05 07:10:39;;;;;;;43.53;21.55;;;;;;;;;;5032111;28;20422;-62
2022/02/05 07:13:15;;;;;;;42.47;22.10;;;;;;;;;;5031577;28;20030;-63
2022/02/05 07:15:53;;;;;;;48.40;22.10;;;;;;;;;;5031567;28;20021;-62
2022/02/05 07:18:47;;;;;;;45.35;21.88;;;;;;;;;;5031147;28;20377;-62
2022/02/05 07:21:16;;;;;;;42.20;21.08;;;;;;;;;;5030423;28;20048;-63
2022/02/05 07:31:42;;;;;;;62.28;29.02;;;;;;;;;;5031051;28;20057;-63
2022/02/05 07:34:09;;;;;;;126.43;55.15;;;;;;;;;;5027561;28;20029;-63
2022/02/05 07:36:35;;;;;;;120.05;51.53;;;;;;;;;;5001316;28;20039;-61
2022/02/05 07:39:01;;;;;;;107.95;48.92;;;;;;;;;;5030537;28;20060;-60
2022/02/05 07:41:27;;;;;;;103.18;48.08;;;;;;;;;;5030277;28;20033;-63
2022/02/05 07:43:57;;;;;;;96.95;43.97;;;;;;;;;;5034214;28;20556;-63
2022/02/05 07:46:24;;;;;;;80.97;38.30;;;;;;;;;;5039960;28;20029;-61
2022/02/05 07:48:50;;;;;;;81.60;37.30;;;;;;;;;;5047577;28;20426;-64
2022/02/05 07:51:16;;;;;;;102.07;51.38;;;;;;;;;;5050995;28;20059;-63
2022/02/05 07:53:45;;;;;;;96.07;50.78;;;;;;;;;;5050381;28;20036;-62
2022/02/05 07:56:11;;;;;;;119.97;61.05;;;;;;;;;;5050919;28;20029;-63
2022/02/05 07:58:37;;;;;;;131.85;67.63;;;;;;;;;;5050523;28;20025;-63
2022/02/05 08:01:04;;;;;;;116.50;63.30;;;;;;;;;;5050449;28;20052;-63
2022/02/05 08:03:30;;;;;;;116.85;62.53;;;;;;;;;;5050674;28;20025;-62
2022/02/05 08:06:00;;;;;;;141.65;74.15;;;;;;;;;;5050582;28;20033;-62
2022/02/05 08:08:29;;;;;;;133.20;65.18;;;;;;;;;;5050620;28;20025;-62
2022/02/05 08:11:05;;;;;;;130.18;63.80;;;;;;;;;;5050720;28;20025;-61
2022/02/05 08:13:33;;;;;;;119.63;60.13;;;;;;;;;;5050624;28;20453;-63
2022/02/05 08:16:12;;;;;;;127.20;66.88;;;;;;;;;;5050791;28;20013;-63
2022/02/05 08:18:39;;;;;;;134.98;73.97;;;;;;;;;;5050658;28;20433;-63
2022/02/05 08:21:05;;;;;;;104.50;54.50;;;;;;;;;;5050472;28;20013;-64
2022/02/05 08:23:31;;;;;;;96.20;50.00;;;;;;;;;;5050289;28;20025;-63
2022/02/05 08:25:58;;;;;;;88.25;46.55;;;;;;;;;;5050263;28;20052;-63
2022/02/05 08:28:27;;;;;;;85.78;44.55;;;;;;;;;;5050575;28;20503;-63
2022/02/05 08:30:53;;;;;;;87.22;44.63;;;;;;;;;;5050520;28;20048;-62
2022/02/05 08:33:20;;;;;;;88.03;43.95;;;;;;;;;;5050320;28;20033;-63
2022/02/05 08:35:49;;;;;;;104.05;46.45;;;;;;;;;;5050593;28;20104;-63
2022/02/05 08:38:15;;;;;;;87.90;46.88;;;;;;;;;;5050237;28;20560;-62
2022/02/05 08:40:41;;;;;;;87.05;48.83;;;;;;;;;;5050414;28;20048;-62
2022/02/05 08:43:07;;;;;;;82.22;43.75;;;;;;;;;;5050264;28;20021;-63
2022/02/05 08:45:33;;;;;;;68.53;38.80;;;;;;;;;;5050314;28;20099;-63
2022/02/05 08:47:59;;;;;;;64.35;35.75;;;;;;;;;;5050312;28;20033;-62
2022/02/05 08:50:26;;;;;;;56.65;34.25;;;;;;;;;;5050104;28;20025;-64
2022/02/05 08:52:55;;;;;;;60.95;31.25;;;;;;;;;;5050285;28;20083;-62
2022/02/05 08:55:21;;;;;;;60.03;34.42;;;;;;;;;;5050228;28;20029;-64
2022/02/05 08:57:47;;;;;;;62.70;31.48;;;;;;;;;;5050032;28;20079;-62
2022/02/05 09:00:15;;;;;;;60.63;35.22;;;;;;;;;;5050264;28;20096;-61
2022/02/05 09:03:00;;;;;;;58.53;32.25;;;;;;;;;;5050228;28;20029;-64
2022/02/05 09:08:32;;;;;;;60.83;32.70;;;;;;;;;;4988870;28;20112;-62
2022/02/05 09:11:09;;;;;;;62.42;33.70;;;;;;;;;;4990693;28;20045;-62
2022/02/05 09:16:01;;;;;;;67.97;38.83;;;;;;;;;;4992465;28;20030;-63
2022/02/05 09:18:27;;;;;;;79.10;43.72;;;;;;;;;;4991894;28;20069;-63
2022/02/05 09:20:54;;;;;;;104.32;53.63;;;;;;;;;;4991906;28;20026;-62
2022/02/05 09:23:20;;;;;;;292.80;134.95;;;;;;;;;;4991689;28;20603;-61
2022/02/05 09:25:46;;;;;;;526.67;262.50;;;;;;;;;;4991370;28;20046;-63
2022/02/05 09:28:12;;;;;;;242.85;113.78;;;;;;;;;;4991824;28;20117;-62
2022/02/05 09:30:46;;;;;;;180.10;94.38;;;;;;;;;;4991755;28;20038;-62
2022/02/05 09:33:12;;;;;;;197.43;101.13;;;;;;;;;;4991694;28;20105;-63
2022/02/05 09:35:39;;;;;;;183.07;93.28;;;;;;;;;;4991441;28;20053;-62
2022/02/05 09:38:05;;;;;;;187.07;89.22;;;;;;;;;;4991671;28;20043;-62
2022/02/05 09:40:32;;;;;;;129.18;63.17;;;;;;;;;;4991086;28;20493;-62
2022/02/05 09:42:58;;;;;;;73.25;38.08;;;;;;;;;;4995824;28;20026;-62
2022/02/05 09:45:25;;;;;;;51.17;27.63;;;;;;;;;;5053061;28;20056;-62
2022/02/05 09:47:51;;;;;;;42.67;22.73;;;;;;;;;;5052768;28;20506;-62
2022/02/05 09:50:20;;;;;;;44.00;23.90;;;;;;;;;;5053026;28;20534;-63
2022/02/05 09:52:51;;;;;;;42.25;22.80;;;;;;;;;;5052415;28;20036;-61
2022/02/05 09:55:17;;;;;;;37.90;21.65;;;;;;;;;;5052625;28;20056;-62
2022/02/05 09:57:43;;;;;;;36.40;21.23;;;;;;;;;;5052796;28;20033;-62
2022/02/05 10:00:15;;;;;;;40.95;22.08;;;;;;;;;;5052843;28;20032;-61
2022/02/05 10:02:41;;;;;;;43.13;23.40;;;;;;;;;;5052633;28;20104;-62
2022/02/05 10:05:10;;;;;;;45.38;24.55;;;;;;;;;;5052607;28;20021;-60
2022/02/05 10:07:51;;;;;;;45.70;23.92;;;;;;;;;;5052608;28;20411;-61
2022/02/05 10:10:17;;;;;;;42.38;23.50;;;;;;;;;;5052583;28;20029;-62
2022/02/05 10:12:43;;;;;;;38.88;21.92;;;;;;;;;;5052319;28;20472;-62
2022/02/05 10:15:10;;;;;;;40.25;22.27;;;;;;;;;;5052641;28;20373;-62
2022/02/05 10:17:43;;;;;;;43.03;22.08;;;;;;;;;;5052287;28;20024;-62
2022/02/05 10:20:11;;;;;;;38.88;22.13;;;;;;;;;;5052439;28;20083;-63
2022/02/05 10:22:42;;;;;;;34.53;20.33;;;;;;;;;;5052189;28;20036;-63
2022/02/05 10:25:15;;;;;;;40.50;21.50;;;;;;;;;;5051916;28;20106;-63
2022/02/05 10:27:43;;;;;;;38.40;21.40;;;;;;;;;;5052243;28;20048;-62
2022/02/05 10:30:12;;;;;;;40.45;22.25;;;;;;;;;;5052494;28;20033;-62
2022/02/05 10:32:42;;;;;;;37.95;22.15;;;;;;;;;;5052249;28;20025;-62
2022/02/05 10:35:31;;;;;;;38.58;21.60;;;;;;;;;;5052411;28;20021;-61
2022/02/05 10:40:49;;;;;;;35.08;20.23;;;;;;;;;;5052261;28;20033;-63
2022/02/05 10:43:30;;;;;;;37.50;20.67;;;;;;;;;;5052108;28;20079;-64
2022/02/05 10:45:57;;;;;;;38.42;20.95;;;;;;;;;;5052045;28;20033;-62
2022/02/05 10:48:24;;;;;;;39.70;21.50;;;;;;;;;;5052202;28;20154;-61
2022/02/05 10:50:52;;;;;;;33.47;18.67;;;;;;;;;;5051977;28;20429;-61
2022/02/05 10:53:23;;;;;;;38.10;18.88;;;;;;;;;;5051609;28;20481;-61
2022/02/05 11:07:09;;;;;;;36.85;19.58;;;;;;;;;;5051254;28;20464;-63
2022/02/05 11:09:35;;;;;;;33.35;18.77;;;;;;;;;;5051372;28;20420;-61
2022/02/05 11:15:16;;;;;;;34.73;18.83;;;;;;;;;;5051506;28;20102;-61
2022/02/05 11:20:20;;;;;;;31.20;15.23;;;;;;;;;;5051290;28;20507;-61
2022/02/05 11:22:46;;;;;;;26.48;16.58;;;;;;;;;;5051298;28;20531;-60
2022/02/05 11:25:13;;;;;;;32.33;17.05;;;;;;;;;;5050504;28;20065;-62
2022/02/05 11:27:43;;;;;;;41.22;20.88;;;;;;;;;;5051097;28;20106;-61
2022/02/05 11:30:46;;;;;;;64.47;34.55;;;;;;;;;;5051372;28;20017;-62
2022/02/05 11:33:18;;;;;;;;;;;;;;;;;;4950916;28;20043;-62
2022/02/05 11:36:39;;;;;;;40.47;21.30;;;;;;;;;;4950638;29;19910;-61
2022/02/05 11:38:34;;;;;;;39.40;21.60;;;;;;;;;;4950381;29;20513;-63
2022/02/05 11:41:01;;;;;;;39.75;21.08;;;;;;;;;;4950762;29;20131;-63
2022/02/05 11:43:31;;;;;;;31.15;16.52;;;;;;;;;;4950679;29;20047;-61
2022/02/05 11:46:13;;;;;;;29.80;15.45;;;;;;;;;;4950683;29;20035;-60
2022/02/05 11:48:53;;;;;;;34.85;18.40;;;;;;;;;;4950292;29;20047;-62
2022/02/05 11:51:28;;;;;;;37.58;18.38;;;;;;;;;;4950590;29;20030;-61
2022/02/05 11:54:00;;;;;;;34.30;18.02;;;;;;;;;;4950291;29;20044;-61
2022/02/05 11:56:51;;;;;;;31.80;16.42;;;;;;;;;;4950535;28;20126;-61
2022/02/05 11:59:18;;;;;;;30.90;17.23;;;;;;;;;;4950589;29;20031;-61
2022/02/05 12:01:47;;;;;;;28.10;15.48;;;;;;;;;;4950408;29;20040;-61
2022/02/05 12:04:17;;;;;;;32.50;17.85;;;;;;;;;;4950417;29;20059;-61
2022/02/05 12:07:00;;;;;;;24.63;13.55;;;;;;;;;;4950334;29;20039;-61
2022/02/05 12:09:36;;;;;;;27.55;15.65;;;;;;;;;;5030138;28;20047;-61
2022/02/05 12:12:21;;;;;;;30.42;15.23;;;;;;;;;;5050767;28;20096;-60
2022/02/05 12:15:05;;;;;;;32.38;17.67;;;;;;;;;;5050746;28;20499;-61
2022/02/05 12:17:53;;;;;;;39.95;19.38;;;;;;;;;;5050685;28;20111;-60
2022/02/05 12:20:25;;;;;;;39.85;18.70;;;;;;;;;;5050282;28;20074;-60
2022/02/05 12:23:03;;;;;;;32.80;15.20;;;;;;;;;;5050672;28;20021;-63
2022/02/05 12:25:29;;;;;;;39.22;20.00;;;;;;;;;;5050288;28;20053;-60
2022/02/05 12:27:55;;;;;;;31.00;16.08;;;;;;;;;;5050505;28;20064;-62
2022/02/05 12:30:35;;;;;;;28.85;15.05;;;;;;;;;;5050454;28;20033;-63
2022/02/05 12:33:02;;;;;;;35.00;17.35;;;;;;;;;;5050401;28;20025;-63
2022/02/05 12:35:28;;;;;;;30.30;16.23;;;;;;;;;;5050159;28;20033;-63
2022/02/05 12:37:54;;;;;;;34.47;17.20;;;;;;;;;;5050288;28;20025;-63
2022/02/05 12:40:20;;;;;;;42.65;19.95;;;;;;;;;;5050245;28;20099;-61
2022/02/05 12:42:53;;;;;;;34.00;18.52;;;;;;;;;;5050383;28;20025;-62
2022/02/05 12:45:24;;;;;;;34.30;18.60;;;;;;;;;;5051752;28;20423;-61
2022/02/05 12:47:51;;;;;;;37.05;20.13;;;;;;;;;;5054184;28;20029;-61
2022/02/05 12:50:17;;;;;;;34.13;18.55;;;;;;;;;;5053902;28;20020;-62
2022/02/05 12:52:51;;;;;;;33.67;18.63;;;;;;;;;;5054160;28;20060;-61
2022/02/05 12:55:27;;;;;;;35.70;19.33;;;;;;;;;;5053806;28;20029;-61
2022/02/05 12:58:00;;;;;;;38.70;20.45;;;;;;;;;;5053907;28;20495;-63
2022/02/05 13:00:26;;;;;;;34.83;19.52;;;;;;;;;;5053825;28;20028;-62
2022/02/05 13:02:52;;;;;;;38.60;20.15;;;;;;;;;;5053728;28;20478;-61
2022/02/05 13:05:18;;;;;;;44.40;21.15;;;;;;;;;;5053954;28;20029;-60
2022/02/05 13:07:47;;;;;;;35.40;20.45;;;;;;;;;;5053659;28;20049;-62
2022/02/05 13:10:14;;;;;;;35.03;20.45;;;;;;;;;;5053452;28;20025;-60
2022/02/05 13:12:42;;;;;;;37.72;20.83;;;;;;;;;;5053893;28;20079;-60
2022/02/05 13:15:23;;;;;;;36.95;21.55;;;;;;;;;;5053727;28;20370;-61
2022/02/05 13:18:27;;;;;;;38.95;21.77;;;;;;;;;;5053642;28;20025;-63
2022/02/05 13:36:19;;;;;;;42.05;23.23;;;;;;;;;;5053447;28;20119;-61
2022/02/05 13:44:18;;;;;;;52.75;29.90;;;;;;;;;;5053263;28;20047;-62
2022/02/05 13:46:59;;;;;;;53.42;28.08;;;;;;;;;;5053124;28;20033;-63
2022/02/05 13:49:25;;;;;;;51.03;27.92;;;;;;;;;;5053043;28;20025;-64
2022/02/05 13:51:51;;;;;;;42.85;24.33;;;;;;;;;;5052960;28;20053;-63
2022/02/05 13:54:18;;;;;;;46.53;26.40;;;;;;;;;;5052479;28;20033;-62
2022/02/05 13:56:44;;;;;;;44.55;25.30;;;;;;;;;;5052400;28;20107;-63
2022/02/05 13:59:21;;;;;;;44.40;24.55;;;;;;;;;;5052959;28;20067;-62
2022/02/05 14:01:47;;;;;;;41.85;24.70;;;;;;;;;;5053036;28;20031;-62
2022/02/05 14:04:14;;;;;;;41.88;24.60;;;;;;;;;;5052653;28;20128;-63
2022/02/05 14:06:59;;;;;;;53.55;29.00;;;;;;;;;;5052582;28;20032;-62
2022/02/05 14:09:26;;;;;;;52.65;27.65;;;;;;;;;;5052562;28;20473;-64
2022/02/05 14:11:53;;;;;;;49.55;28.80;;;;;;;;;;5052450;28;20035;-63
2022/02/05 14:14:26;;;;;;;54.95;28.60;;;;;;;;;;5052374;28;20036;-62
2022/02/05 14:16:52;;;;;;;47.97;27.05;;;;;;;;;;5052264;28;20108;-64
2022/02/05 14:19:21;;;;;;;44.67;26.65;;;;;;;;;;5052445;28;20021;-60
2022/02/05 14:21:49;;;;;;;49.38;27.42;;;;;;;;;;5052094;28;20363;-63
2022/02/05 14:24:18;;;;;;;46.08;27.65;;;;;;;;;;5051968;28;20041;-62
2022/02/05 14:27:06;;;;;;;50.17;29.10;;;;;;;;;;5052261;28;20030;-61
2022/02/05 14:29:54;;;;;;;48.20;29.23;;;;;;;;;;5052354;28;20116;-61
2022/02/05 14:32:41;;;;;;;53.28;30.60;;;;;;;;;;5052448;28;20104;-62
2022/02/05 14:35:29;;;;;;;55.88;30.73;;;;;;;;;;5052002;28;20447;-62
2022/02/05 14:40:45;;;;;;;53.28;29.83;;;;;;;;;;5052023;28;20044;-63
2022/02/05 14:43:12;;;;;;;47.28;27.13;;;;;;;;;;5051894;28;20403;-60
2022/02/05 14:45:38;;;;;;;54.97;28.27;;;;;;;;;;5051807;28;20036;-63
2022/02/05 14:48:04;;;;;;;36.28;20.00;;;;;;;;;;5051829;28;20122;-62
2022/02/05 14:50:30;;;;;;;23.35;12.00;;;;;;;;;;5051741;28;20025;-62
2022/02/05 14:52:56;;;;;;;37.78;19.58;;;;;;;;;;5051467;28;20025;-62
2022/02/05 14:55:23;;;;;;;19.00;10.98;;;;;;;;;;5051552;28;20239;-61
2022/02/05 14:57:49;;;;;;;44.28;20.48;;;;;;;;;;5051619;28;20021;-61
2022/02/05 15:00:15;;;;;;;24.60;11.00;;;;;;;;;;5051409;28;20017;-61
2022/02/05 15:02:41;;;;;;;15.23;7.38;;;;;;;;;;5051550;28;20096;-61
2022/02/05 15:05:12;;;;;;;25.08;10.60;;;;;;;;;;5051372;28;20542;-63
2022/02/05 15:07:41;;;;;;;19.50;7.43;;;;;;;;;;5050658;28;20427;-61
2022/02/05 15:10:09;;;;;;;14.32;6.90;;;;;;;;;;5051341;28;20033;-62
2022/02/05 15:12:36;;;;;;;33.83;12.75;;;;;;;;;;5051363;28;20463;-62
2022/02/05 15:15:05;;;;;;;46.40;16.00;;;;;;;;;;5051612;28;20036;-62
2022/02/05 15:17:34;;;;;;;14.60;7.28;;;;;;;;;;5051334;28;20021;-62
2022/02/05 15:20:00;;;;;;;9.68;4.75;;;;;;;;;;5051188;28;20025;-64
2022/02/05 15:22:26;;;;;;;11.40;5.35;;;;;;;;;;5051217;28;20025;-63
2022/02/05 15:24:52;;;;;;;14.77;7.25;;;;;;;;;;5050793;28;20152;-63
2022/02/05 15:27:18;;;;;;;9.25;4.60;;;;;;;;;;5051347;28;20052;-62
2022/02/05 15:29:44;;;;;;;8.80;4.32;;;;;;;;;;5051156;28;20029;-62
2022/02/05 15:32:10;;;;;;;12.93;5.68;;;;;;;;;;5051077;28;20061;-62
2022/02/05 15:34:36;;;;;;;8.88;5.03;;;;;;;;;;5050959;28;20029;-63
2022/02/05 15:37:09;;;;;;;15.32;6.18;;;;;;;;;;5050975;28;20035;-62
2022/02/05 15:45:02;;;;;;;14.85;5.35;;;;;;;;;;5051045;28;20036;-62
2022/02/05 15:47:29;;;;;;;13.82;6.53;;;;;;;;;;5050595;28;20469;-63
2022/02/05 15:49:55;;;;;;;10.32;5.65;;;;;;;;;;5050663;28;20028;-61
2022/02/05 15:52:21;;;;;;;9.55;5.35;;;;;;;;;;5050799;28;20029;-62
2022/02/05 15:54:49;;;;;;;9.35;4.75;;;;;;;;;;5050477;28;20477;-61
2022/02/05 16:00:03;;;;;;;11.43;6.00;;;;;;;;;;5050798;28;20025;-63
2022/02/05 16:02:29;;;;;;;7.47;3.28;;;;;;;;;;5051098;28;20083;-63
2022/02/05 16:04:55;;;;;;;11.38;6.88;;;;;;;;;;5050805;28;20025;-64
2022/02/05 16:07:21;;;;;;;11.85;6.15;;;;;;;;;;5032246;28;20503;-61
2022/02/05 16:09:47;;;;;;;11.77;6.40;;;;;;;;;;5050750;28;20017;-63
2022/02/05 16:12:14;;;;;;;7.97;5.05;;;;;;;;;;5050785;28;20025;-65
2022/02/05 16:14:40;;;;;;;14.80;5.88;;;;;;;;;;5050635;28;20036;-63
2022/02/05 16:17:06;;;;;;;23.55;11.55;;;;;;;;;;5050586;28;20423;-62
2022/02/05 16:19:32;;;;;;;23.05;12.05;;;;;;;;;;5052341;28;20361;-62
2022/02/05 16:21:59;;;;;;;16.85;8.15;;;;;;;;;;5054694;28;20111;-63
2022/02/05 16:24:25;;;;;;;14.27;7.70;;;;;;;;;;5054373;28;20049;-63
2022/02/05 16:26:51;;;;;;;15.65;7.78;;;;;;;;;;5054308;28;20549;-61
2022/02/05 16:29:21;;;;;;;13.02;8.13;;;;;;;;;;5054305;28;20449;-62
2022/02/05 16:31:48;;;;;;;12.27;6.80;;;;;;;;;;5054635;28;20025;-64
2022/02/05 16:34:17;;;;;;;12.98;6.75;;;;;;;;;;5054274;28;20052;-62
2022/02/05 16:36:47;;;;;;;19.50;11.82;;;;;;;;;;5054195;28;20027;-63
2022/02/05 16:39:18;;;;;;;13.77;8.15;;;;;;;;;;5054340;28;20017;-62
2022/02/05 16:41:44;;;;;;;15.65;7.75;;;;;;;;;;5054120;28;20131;-62
2022/02/05 16:44:10;;;;;;;18.15;10.13;;;;;;;;;;5053875;28;20400;-63
2022/02/05 16:46:39;;;;;;;14.10;7.65;;;;;;;;;;5053871;28;20036;-63
2022/02/05 16:49:06;;;;;;;18.25;8.27;;;;;;;;;;5054182;28;20481;-63
2022/02/05 16:51:34;;;;;;;14.10;7.05;;;;;;;;;;5053793;28;20075;-62
2022/02/05 16:54:00;;;;;;;12.18;6.95;;;;;;;;;;5035831;28;20435;-61
2022/02/05 16:56:31;;;;;;;14.38;6.88;;;;;;;;;;5053631;28;20096;-63
2022/02/05 16:58:57;;;;;;;12.48;6.80;;;;;;;;;;5053509;28;20025;-62
2022/02/05 17:01:24;;;;;;;14.77;7.80;;;;;;;;;;5053715;28;20096;-63
2022/02/05 17:03:50;;;;;;;14.27;7.13;;;;;;;;;;5053624;28;20071;-63
2022/02/05 17:06:16;;;;;;;21.98;11.43;;;;;;;;;;5053304;28;20500;-62
2022/02/05 17:08:44;;;;;;;28.20;11.05;;;;;;;;;;5053744;28;20119;-63
2022/02/05 17:11:11;;;;;;;24.67;10.02;;;;;;;;;;5053391;28;20021;-64
2022/02/05 17:13:40;;;;;;;16.73;8.27;;;;;;;;;;5053691;28;20040;-63
2022/02/05 17:16:06;;;;;;;14.75;7.95;;;;;;;;;;5053632;28;20053;-62
2022/02/05 17:18:33;;;;;;;16.63;7.13;;;;;;;;;;5053439;28;20107;-63
2022/02/05 17:20:59;;;;;;;15.02;7.38;;;;;;;;;;5053528;28;20032;-63
2022/02/05 17:23:27;;;;;;;10.98;5.57;;;;;;;;;;5053511;28;20021;-62
2022/02/05 17:25:54;;;;;;;15.18;6.10;;;;;;;;;;5053099;28;20088;-63
2022/02/05 17:28:21;;;;;;;12.00;6.80;;;;;;;;;;5053312;28;20424;-63
2022/02/05 17:30:47;;;;;;;11.63;6.50;;;;;;;;;;5052100;28;20075;-64
2022/02/05 17:33:15;;;;;;;13.45;6.18;;;;;;;;;;5053133;28;20374;-63
2022/02/05 17:35:44;;;;;;;15.25;6.43;;;;;;;;;;5053134;28;20476;-63
2022/02/05 17:38:12;;;;;;;12.50;5.85;;;;;;;;;;5053078;28;20134;-62
2022/02/05 17:40:38;;;;;;;11.82;5.70;;;;;;;;;;5053201;28;20013;-63
2022/02/05 17:43:04;;;;;;;12.00;5.20;;;;;;;;;;5052730;28;20032;-63
2022/02/05 17:45:30;;;;;;;13.93;5.55;;;;;;;;;;5052750;28;20064;-63
2022/02/05 17:47:57;;;;;;;14.68;5.75;;;;;;;;;;5052487;28;20036;-63
2022/02/05 17:50:23;;;;;;;9.88;4.75;;;;;;;;;;5052916;28;20025;-61
2022/02/05 17:52:49;;;;;;;11.70;5.20;;;;;;;;;;5052761;28;20027;-62
2022/02/05 17:55:18;;;;;;;11.68;5.70;;;;;;;;;;5052647;28;20115;-63
2022/02/05 17:57:46;;;;;;;8.93;4.45;;;;;;;;;;5052795;28;20412;-62
2022/02/05 18:00:14;;;;;;;10.32;4.22;;;;;;;;;;5052637;28;20024;-63
2022/02/05 18:02:41;;;;;;;10.02;3.58;;;;;;;;;;5052773;28;20086;-63
2022/02/05 18:05:10;;;;;;;10.02;4.53;;;;;;;;;;5052460;28;20082;-63
2022/02/05 18:08:00;;;;;;;13.98;4.93;;;;;;;;;;5052720;28;20032;-62
2022/02/05 18:10:39;;;;;;;12.02;3.80;;;;;;;;;;5052339;28;20032;-63
2022/02/05 18:13:11;;;;;;;11.93;4.50;;;;;;;;;;5052384;28;20035;-64
2022/02/05 18:15:38;;;;;;;19.17;8.20;;;;;;;;;;5052305;28;20108;-63
2022/02/05 18:18:06;;;;;;;10.45;5.18;;;;;;;;;;5052103;28;20570;-62
2022/02/05 18:20:32;;;;;;;9.68;4.03;;;;;;;;;;5052253;28;20031;-62
2022/02/05 18:23:01;;;;;;;13.90;5.32;;;;;;;;;;5051839;28;20056;-63
2022/02/05 18:25:29;;;;;;;14.52;6.25;;;;;;;;;;5051626;28;20127;-63
2022/02/05 18:27:56;;;;;;;10.77;4.53;;;;;;;;;;5051601;28;20028;-63
2022/02/05 18:30:22;;;;;;;11.70;4.57;;;;;;;;;;5052118;28;20017;-65
2022/02/05 18:32:48;;;;;;;13.80;4.78;;;;;;;;;;5052065;28;20080;-63
2022/02/05 18:35:15;;;;;;;13.48;4.70;;;;;;;;;;5051754;28;20032;-63
2022/02/05 18:37:41;;;;;;;11.32;5.95;;;;;;;;;;5051790;28;20033;-63
2022/02/05 18:40:08;;;;;;;14.50;5.78;;;;;;;;;;5051885;28;20062;-64
2022/02/05 18:42:34;;;;;;;11.80;5.93;;;;;;;;;;5051634;28;20036;-64
2022/02/05 18:45:02;;;;;;;15.02;5.78;;;;;;;;;;5051909;28;20013;-64
2022/02/05 18:47:28;;;;;;;12.30;5.65;;;;;;;;;;5051825;28;20036;-63
2022/02/05 18:49:54;;;;;;;13.30;5.60;;;;;;;;;;5051780;28;20032;-63
2022/02/05 18:52:20;;;;;;;20.85;8.60;;;;;;;;;;5051615;28;20037;-64
2022/02/05 18:54:46;;;;;;;16.63;7.32;;;;;;;;;;5051506;28;20048;-64
2022/02/05 18:57:12;;;;;;;18.67;8.15;;;;;;;;;;5051891;28;20131;-63
2022/02/05 18:59:43;;;;;;;27.20;9.43;;;;;;;;;;5051760;28;20106;-62
2022/02/05 19:20:31;;;;;;;27.90;12.55;;;;;;;;;;5051280;28;20499;-63
2022/02/05 19:22:57;;;;;;;27.13;13.48;;;;;;;;;;5050885;28;20405;-62
2022/02/05 19:25:24;;;;;;;23.88;11.57;;;;;;;;;;5050527;28;20061;-61
2022/02/05 19:27:50;;;;;;;24.45;12.55;;;;;;;;;;5051061;28;20032;-62
2022/02/05 19:30:16;;;;;;;27.70;12.10;;;;;;;;;;5051060;28;20047;-62
2022/02/05 19:32:42;;;;;;;24.45;12.00;;;;;;;;;;5051256;28;20445;-63
2022/02/05 19:35:08;;;;;;;22.60;11.27;;;;;;;;;;5050957;28;20234;-63
2022/02/05 19:37:34;;;;;;;26.23;12.30;;;;;;;;;;5050998;28;20037;-62
2022/02/05 19:40:02;;;;;;;23.90;12.02;;;;;;;;;;5050849;28;20017;-63
2022/02/05 19:42:28;;;;;;;23.80;12.98;;;;;;;;;;5050473;28;20527;-64
2022/02/05 19:44:57;;;;;;;29.83;13.55;;;;;;;;;;5050712;28;20040;-63
2022/02/05 19:47:38;;;;;;;26.35;13.77;;;;;;;;;;5051010;28;20029;-64
2022/02/05 19:50:04;;;;;;;26.10;13.13;;;;;;;;;;5050809;28;20068;-63
2022/02/05 19:52:30;;;;;;;29.85;13.80;;;;;;;;;;5050397;28;20055;-63
2022/02/05 19:54:57;;;;;;;29.67;13.38;;;;;;;;;;5049249;28;20037;-63
2022/02/05 19:57:23;;;;;;;26.23;13.18;;;;;;;;;;5050519;28;20159;-63
2022/02/05 19:59:50;;;;;;;25.98;12.88;;;;;;;;;;5050737;28;20033;-63
2022/02/05 20:02:16;;;;;;;23.50;11.02;;;;;;;;;;5050674;28;20062;-63
2022/02/05 20:05:24;;;;;;;24.77;11.98;;;;;;;;;;5050543;28;20396;-64
2022/02/05 20:10:21;;;;;;;26.65;11.50;;;;;;;;;;4969303;28;20035;-63
2022/02/05 20:12:47;;;;;;;24.88;10.85;;;;;;;;;;4969480;28;20074;-63
2022/02/05 20:15:13;;;;;;;24.80;11.43;;;;;;;;;;4969553;28;20170;-62
2022/02/05 20:17:39;;;;;;;27.35;12.93;;;;;;;;;;4969434;28;20047;-62
2022/02/05 20:20:06;;;;;;;23.25;12.18;;;;;;;;;;4969479;28;20023;-64
2022/02/05 20:22:34;;;;;;;23.27;11.77;;;;;;;;;;4969181;28;20063;-64
2022/02/05 20:25:00;;;;;;;22.23;11.23;;;;;;;;;;4968602;28;20130;-64
2022/02/05 20:27:26;;;;;;;28.85;12.88;;;;;;;;;;4952936;28;20047;-63
2022/02/05 20:29:53;;;;;;;26.58;12.00;;;;;;;;;;4969234;28;20027;-63
2022/02/05 20:32:19;;;;;;;25.67;12.10;;;;;;;;;;4969545;28;20041;-64
2022/02/05 20:34:45;;;;;;;24.70;11.35;;;;;;;;;;4969304;28;20435;-63
2022/02/05 20:37:14;;;;;;;16.65;7.80;;;;;;;;;;4969041;28;20121;-63
2022/02/05 20:39:41;;;;;;;18.13;8.13;;;;;;;;;;4969330;28;20054;-64
2022/02/05 20:42:07;;;;;;;22.73;10.95;;;;;;;;;;4969318;28;20031;-63
2022/02/05 20:44:33;;;;;;;22.98;11.63;;;;;;;;;;4953182;28;20506;-63
2022/02/05 20:46:59;;;;;;;33.55;17.60;;;;;;;;;;4994608;28;20037;-63
2022/02/05 20:49:25;;;;;;;36.65;17.40;;;;;;;;;;5050260;28;20369;-64
2022/02/05 20:51:52;;;;;;;29.45;15.00;;;;;;;;;;5050184;28;20025;-64
2022/02/05 20:54:29;;;;;;;28.15;15.75;;;;;;;;;;5050099;28;20103;-63
2022/02/05 20:56:55;;;;;;;26.85;13.57;;;;;;;;;;5050425;28;20021;-64
2022/02/05 20:59:21;;;;;;;28.35;14.10;;;;;;;;;;5050349;28;20484;-64
2022/02/05 21:01:48;;;;;;;24.70;12.23;;;;;;;;;;5050047;28;20550;-63
2022/02/05 21:04:17;;;;;;;25.10;12.32;;;;;;;;;;5050217;28;20519;-64
2022/02/05 21:06:43;;;;;;;28.45;12.10;;;;;;;;;;5051972;28;20025;-63
2022/02/05 21:09:11;;;;;;;28.40;12.10;;;;;;;;;;5053809;28;20040;-64
2022/02/05 21:11:38;;;;;;;28.80;12.63;;;;;;;;;;5053880;28;20075;-63
2022/02/05 21:14:04;;;;;;;27.10;12.70;;;;;;;;;;5053556;28;20028;-63
2022/02/05 21:16:32;;;;;;;25.92;13.23;;;;;;;;;;5053461;28;20202;-63
2022/02/05 21:18:58;;;;;;;27.23;13.82;;;;;;;;;;5053537;28;20032;-64
2022/02/05 21:21:31;;;;;;;30.20;13.88;;;;;;;;;;5053344;28;20025;-63
2022/02/05 21:23:57;;;;;;;28.83;14.13;;;;;;;;;;5052728;28;20598;-64
2022/02/05 21:26:25;;;;;;;29.60;15.18;;;;;;;;;;5052949;28;20029;-63
2022/02/05 21:28:52;;;;;;;30.73;14.80;;;;;;;;;;5053163;28;20028;-64
2022/02/05 21:31:46;;;;;;;23.23;12.63;;;;;;;;;;5053393;28;20492;-64
2022/02/05 21:36:52;;;;;;;24.70;12.05;;;;;;;;;;5051518;28;20507;-64
2022/02/05 21:39:18;;;;;;;24.83;12.15;;;;;;;;;;5050753;28;20476;-63
2022/02/05 21:41:45;;;;;;;24.50;12.80;;;;;;;;;;5052271;28;20025;-64
2022/02/05 21:44:11;;;;;;;28.38;12.82;;;;;;;;;;5052916;28;20031;-67
2022/02/05 21:46:37;;;;;;;25.65;12.57;;;;;;;;;;5052834;28;20121;-63
2022/02/05 21:49:03;;;;;;;23.52;11.77;;;;;;;;;;5052877;28;20044;-64
2022/02/05 21:51:32;;;;;;;27.10;13.60;;;;;;;;;;5053075;28;20020;-63
2022/02/05 21:54:01;;;;;;;33.83;15.10;;;;;;;;;;5052663;28;20550;-63
2022/02/05 21:56:39;;;;;;;32.55;14.65;;;;;;;;;;5052997;28;20021;-64
2022/02/05 21:59:08;;;;;;;31.30;13.80;;;;;;;;;;5052731;28;20440;-62
2022/02/05 22:01:38;;;;;;;31.17;13.95;;;;;;;;;;5053001;28;20021;-62
2022/02/05 22:04:05;;;;;;;28.10;13.98;;;;;;;;;;5052900;28;20071;-64
2022/02/05 22:06:31;;;;;;;26.58;12.27;;;;;;;;;;5052671;28;20025;-64
2022/02/05 22:08:58;;;;;;;27.55;12.48;;;;;;;;;;5052966;28;20075;-64
2022/02/05 22:11:25;;;;;;;27.55;12.20;;;;;;;;;;5052537;28;20028;-63
2022/02/05 22:13:51;;;;;;;26.02;11.73;;;;;;;;;;5052265;28;20028;-64
2022/02/05 22:16:17;;;;;;;25.15;11.02;;;;;;;;;;5052340;28;20111;-63
2022/02/05 22:18:43;;;;;;;22.80;10.27;;;;;;;;;;5052011;28;20028;-63
2022/02/05 22:21:09;;;;;;;18.55;9.68;;;;;;;;;;5052550;28;20028;-63
2022/02/05 22:23:36;;;;;;;20.10;10.02;;;;;;;;;;5052374;28;20025;-64